createdAt,value
2018-07-05T00:02:23.310Z,3.90
2018-07-05T00:05:08.364Z,3.10
2018-07-05T00:07:53.561Z,3.40
2018-07-05T00:10:38.610Z,3.60
2018-07-05T00:13:23.796Z,3.03
2018-07-05T00:16:08.813Z,3.40
2018-07-05T00:18:54.082Z,3.50
2018-07-05T00:21:39.268Z,3.30
2018-07-05T00:24:24.142Z,3.40
2018-07-05T00:27:09.059Z,3.23
2018-07-05T00:29:54.315Z,3.17
2018-07-05T00:32:39.346Z,3.30
2018-07-05T00:35:24.531Z,3.20
2018-07-05T00:38:09.698Z,3.63
2018-07-05T00:40:54.959Z,3.47
2018-07-05T00:43:40.422Z,3.40
2018-07-05T00:46:25.453Z,3.87
2018-07-05T00:49:10.822Z,3.90
2018-07-05T00:51:55.758Z,3.80
2018-07-05T00:54:40.988Z,4.00
2018-07-05T00:57:26.103Z,3.33
2018-07-05T01:00:11.274Z,4.13
2018-07-05T01:02:56.553Z,3.87
2018-07-05T01:05:41.603Z,3.67
2018-07-05T01:08:26.691Z,3.83
2018-07-05T01:11:11.855Z,3.73
2018-07-05T01:13:57.034Z,3.73
2018-07-05T01:16:42.318Z,4.10
2018-07-05T01:19:27.297Z,4.00
2018-07-05T01:22:12.587Z,3.80
2018-07-05T01:24:57.872Z,3.53
2018-07-05T01:27:43.007Z,3.23
2018-07-05T01:30:28.042Z,4.00
2018-07-05T01:33:13.445Z,3.53
2018-07-05T01:35:58.554Z,3.80
2018-07-05T01:38:43.602Z,3.60
2018-07-05T01:41:28.561Z,3.10
2018-07-05T01:44:13.841Z,3.50
2018-07-05T01:46:58.968Z,3.37
2018-07-05T01:49:44.002Z,3.57
2018-07-05T01:52:29.036Z,3.70
2018-07-05T01:55:14.118Z,4.23
2018-07-05T01:57:59.178Z,3.30
2018-07-05T02:00:44.377Z,4.03
2018-07-05T02:03:29.549Z,3.57
2018-07-05T02:06:14.698Z,3.30
2018-07-05T02:08:59.805Z,3.10
2018-07-05T02:11:45.245Z,3.67
2018-07-05T02:14:30.418Z,3.33
2018-07-05T02:17:15.710Z,3.40
2018-07-05T02:20:00.878Z,3.90
2018-07-05T02:22:45.899Z,3.30
2018-07-05T02:25:30.850Z,3.83
2018-07-05T02:28:15.729Z,3.90
2018-07-05T02:31:00.852Z,4.13
2018-07-05T02:33:46.673Z,3.57
2018-07-05T02:36:34.602Z,3.17
2018-07-05T02:39:25.553Z,4.30
2018-07-05T02:42:10.554Z,4.20
2018-07-05T02:44:50.155Z,3.47
2018-07-05T02:47:35.283Z,4.03
2018-07-05T02:50:20.439Z,4.10
2018-07-05T02:53:05.637Z,3.87
2018-07-05T02:55:50.838Z,4.20
2018-07-05T02:58:36.053Z,3.47
2018-07-05T03:01:21.094Z,3.87
2018-07-05T03:04:06.496Z,3.67
2018-07-05T03:06:51.570Z,3.47
2018-07-05T03:09:36.546Z,3.67
2018-07-05T03:12:21.621Z,3.40
2018-07-05T03:15:06.797Z,3.00
2018-07-05T03:17:52.102Z,3.20
2018-07-05T03:20:37.422Z,3.50
2018-07-05T03:23:16.853Z,3.10
2018-07-05T03:26:02.064Z,3.57
2018-07-05T03:28:47.294Z,3.50
2018-07-05T03:31:32.358Z,3.43
2018-07-05T03:34:17.606Z,3.47
2018-07-05T03:37:02.991Z,3.40
2018-07-05T03:39:48.171Z,4.40
2018-07-05T03:42:33.619Z,3.37
2018-07-05T03:45:12.873Z,3.50
2018-07-05T03:47:57.936Z,3.57
2018-07-05T03:50:42.873Z,3.43
2018-07-05T03:53:28.102Z,4.30
2018-07-05T03:56:13.237Z,3.53
2018-07-05T03:58:52.540Z,3.80
2018-07-05T04:01:37.671Z,3.20
2018-07-05T04:04:22.704Z,4.03
2018-07-05T04:07:07.778Z,4.37
2018-07-05T04:09:53.086Z,4.50
2018-07-05T04:12:37.909Z,4.17
2018-07-05T04:15:23.002Z,3.80
2018-07-05T04:18:02.288Z,3.77
2018-07-05T04:20:47.406Z,3.57
2018-07-05T04:23:32.405Z,3.57
2018-07-05T04:26:17.534Z,4.20
2018-07-05T04:29:02.671Z,3.77
2018-07-05T04:31:47.830Z,4.23
2018-07-05T04:34:32.837Z,3.77
2018-07-05T04:37:18.098Z,3.60
2018-07-05T04:40:03.273Z,4.73
2018-07-05T04:42:42.701Z,4.50
2018-07-05T04:45:27.770Z,3.80
2018-07-05T04:48:12.851Z,3.80
2018-07-05T04:50:58.108Z,4.00
2018-07-05T04:53:43.337Z,4.20
2018-07-05T04:56:28.338Z,3.87
2018-07-05T04:59:07.762Z,4.03
2018-07-05T05:01:53.033Z,3.93
2018-07-05T05:04:38.154Z,3.40
2018-07-05T05:07:23.321Z,3.73
2018-07-05T05:13:06.778Z,3.83
2018-07-05T05:15:51.926Z,3.80
2018-07-05T05:18:37.246Z,3.40
2018-07-05T05:21:22.290Z,3.60
2018-07-05T05:24:07.498Z,3.73
2018-07-05T05:26:52.622Z,3.97
2018-07-05T05:29:37.959Z,4.50
2018-07-05T05:32:17.256Z,3.40
2018-07-05T05:35:02.452Z,3.30
2018-07-05T05:37:47.723Z,3.47
2018-07-05T05:40:32.815Z,3.50
2018-07-05T05:43:17.920Z,3.80
2018-07-05T05:46:02.919Z,3.80
2018-07-05T05:48:47.981Z,3.80
2018-07-05T05:51:33.213Z,3.67
2018-07-05T05:54:18.136Z,4.00
2018-07-05T05:57:03.250Z,3.50
2018-07-05T05:59:48.486Z,3.40
2018-07-05T06:02:27.994Z,3.73
2018-07-05T06:05:13.156Z,3.93
2018-07-05T06:07:58.304Z,3.20
2018-07-05T06:10:43.135Z,2.73
2018-07-05T06:13:28.350Z,2.90
2018-07-05T06:16:13.541Z,3.27
2018-07-05T06:18:58.651Z,2.50
2018-07-05T06:21:43.558Z,2.67
2018-07-05T06:24:22.888Z,2.20
2018-07-05T06:27:07.964Z,2.83
2018-07-05T06:29:53.181Z,2.37
2018-07-05T06:32:38.159Z,2.23
2018-07-05T06:35:23.346Z,2.20
2018-07-05T06:38:08.370Z,2.77
2018-07-05T06:40:47.702Z,2.30
2018-07-05T06:43:32.706Z,2.40
2018-07-05T06:46:17.647Z,2.07
2018-07-05T06:49:02.435Z,2.53
2018-07-05T06:51:47.706Z,2.70
2018-07-05T06:54:32.890Z,2.90
2018-07-05T06:57:17.935Z,3.00
2018-07-05T07:00:02.902Z,2.93
2018-07-05T07:02:48.202Z,3.13
2018-07-05T07:05:28.081Z,3.00
2018-07-05T07:08:13.151Z,2.67
2018-07-05T07:10:58.323Z,2.43
2018-07-05T07:13:43.410Z,2.67
2018-07-05T07:16:28.451Z,2.57
2018-07-05T07:19:07.749Z,3.10
2018-07-05T07:21:52.779Z,2.90
2018-07-05T07:24:37.619Z,2.47
2018-07-05T07:27:22.686Z,3.07
2018-07-05T07:30:07.608Z,2.93
2018-07-05T07:32:46.810Z,2.70
2018-07-05T07:35:31.872Z,3.17
2018-07-05T07:38:16.822Z,2.30
2018-07-05T07:41:01.995Z,2.53
2018-07-05T07:43:28.333Z,3.47
2018-07-05T07:45:54.623Z,2.60
2018-07-05T07:48:20.926Z,3.33
2018-07-05T07:50:47.195Z,3.07
2018-07-05T07:53:13.561Z,2.90
2018-07-05T07:55:39.875Z,2.90
2018-07-05T07:58:06.303Z,2.93
2018-07-05T08:00:32.996Z,3.03
2018-07-05T08:02:59.263Z,2.77
2018-07-05T08:05:25.677Z,2.70
2018-07-05T08:07:52.091Z,2.30
2018-07-05T08:10:33.350Z,2.27
2018-07-05T08:12:59.676Z,3.10
2018-07-05T08:15:25.957Z,2.77
2018-07-05T08:17:52.304Z,2.80
2018-07-05T08:20:18.681Z,2.47
2018-07-05T08:22:45.004Z,2.10
2018-07-05T08:25:11.345Z,2.37
2018-07-05T08:27:37.674Z,2.30
2018-07-05T08:30:03.975Z,2.50
2018-07-05T08:32:30.367Z,2.83
2018-07-05T08:34:56.746Z,2.50
2018-07-05T08:37:23.147Z,2.53
2018-07-05T08:39:49.526Z,2.93
2018-07-05T08:42:15.811Z,2.90
2018-07-05T08:44:42.096Z,2.80
2018-07-05T08:47:08.421Z,2.77
2018-07-05T08:49:34.901Z,2.40
2018-07-05T08:52:01.430Z,2.90
2018-07-05T08:54:27.762Z,2.77
2018-07-05T08:56:54.035Z,2.87
2018-07-05T08:59:20.375Z,3.03
2018-07-05T09:01:52.609Z,3.60
2018-07-05T09:04:18.971Z,2.97
2018-07-05T09:06:46.158Z,2.63
2018-07-05T09:09:12.445Z,3.07
2018-07-05T09:11:38.814Z,2.43
2018-07-05T09:14:05.119Z,2.33
2018-07-05T09:16:31.475Z,2.77
2018-07-05T09:18:57.787Z,2.10
2018-07-05T09:21:24.249Z,1.70
2018-07-05T09:23:50.603Z,2.20
2018-07-05T09:26:16.918Z,1.90
2018-07-05T09:28:43.574Z,2.20
2018-07-05T09:31:09.997Z,2.30
2018-07-05T09:33:36.298Z,2.10
2018-07-05T09:36:02.594Z,1.63
2018-07-05T09:38:29.512Z,1.70
2018-07-05T09:40:55.902Z,1.60
2018-07-05T09:43:22.217Z,2.30
2018-07-05T09:45:48.870Z,1.80
2018-07-05T09:48:15.163Z,1.97
2018-07-05T09:50:41.452Z,2.60
2018-07-05T09:53:07.774Z,5.57
2018-07-05T09:55:34.105Z,2.97
2018-07-05T09:58:00.430Z,4.90
2018-07-05T10:01:03.208Z,2.40
2018-07-05T10:03:29.485Z,2.40
2018-07-05T10:05:55.808Z,2.70
2018-07-05T10:08:22.194Z,2.70
2018-07-05T10:10:48.492Z,4.07
2018-07-05T10:13:15.073Z,4.70
2018-07-05T10:15:41.765Z,2.23
2018-07-05T10:18:08.030Z,4.17
2018-07-05T10:20:34.348Z,1.93
2018-07-05T10:23:00.773Z,3.07
2018-07-05T10:25:27.120Z,3.50
2018-07-05T10:27:53.455Z,2.10
2018-07-05T10:30:38.609Z,2.87
2018-07-05T10:33:23.549Z,2.13
2018-07-05T10:35:49.826Z,2.50
2018-07-05T10:38:16.172Z,1.90
2018-07-05T10:41:01.237Z,2.60
2018-07-05T10:43:46.814Z,2.87
2018-07-05T10:46:31.857Z,2.20
2018-07-05T10:49:17.061Z,1.93
2018-07-05T10:52:02.202Z,2.83
2018-07-05T10:54:47.301Z,2.90
2018-07-05T10:57:32.421Z,2.50
2018-07-05T11:00:17.634Z,2.03
2018-07-05T11:03:02.648Z,2.60
2018-07-05T11:05:47.807Z,3.00
2018-07-05T11:08:33.018Z,2.70
2018-07-05T11:11:18.151Z,2.80
2018-07-05T11:14:03.310Z,2.13
2018-07-05T11:16:48.443Z,3.27
2018-07-05T11:19:33.630Z,2.63
2018-07-05T11:22:19.070Z,2.97
2018-07-05T11:25:04.175Z,2.70
2018-07-05T11:27:49.207Z,2.67
2018-07-05T11:30:34.356Z,2.50
2018-07-05T11:33:19.446Z,2.50
2018-07-05T11:36:04.987Z,2.87
2018-07-05T11:38:50.026Z,2.83
2018-07-05T11:41:36.080Z,2.90
2018-07-05T11:44:21.230Z,2.67
2018-07-05T11:47:06.498Z,2.60
2018-07-05T11:49:51.722Z,2.80
2018-07-05T11:52:37.012Z,3.23
2018-07-05T11:55:22.141Z,3.40
2018-07-05T11:58:07.050Z,3.00
2018-07-05T12:00:52.107Z,3.40
2018-07-05T12:03:37.258Z,3.00
2018-07-05T12:06:22.416Z,3.07
2018-07-05T12:09:01.791Z,2.80
2018-07-05T12:11:47.071Z,2.60
2018-07-05T12:14:32.322Z,2.03
2018-07-05T12:17:17.450Z,2.50
2018-07-05T12:20:02.427Z,2.50
2018-07-05T12:22:47.643Z,2.60
2018-07-05T12:25:33.532Z,2.07
2018-07-05T12:28:18.686Z,2.10
2018-07-05T12:31:03.714Z,2.57
2018-07-05T12:33:48.854Z,2.73
2018-07-05T12:36:34.100Z,2.83
2018-07-05T12:39:19.519Z,3.00
2018-07-05T12:42:04.591Z,3.23
2018-07-05T12:44:43.982Z,3.53
2018-07-05T12:47:29.251Z,2.90
2018-07-05T12:50:14.371Z,3.00
2018-07-05T12:52:59.493Z,3.17
2018-07-05T12:55:46.032Z,3.13
2018-07-05T12:58:31.152Z,2.87
2018-07-05T13:01:16.168Z,2.83
2018-07-05T13:04:03.382Z,3.10
2018-07-05T13:06:48.442Z,2.97
2018-07-05T13:09:33.751Z,2.50
2018-07-05T13:12:19.139Z,2.43
2018-07-05T13:15:04.390Z,2.50
2018-07-05T13:17:49.646Z,2.80
2018-07-05T13:20:34.863Z,2.50
2018-07-05T13:23:20.057Z,2.23
2018-07-05T13:25:59.378Z,2.70
2018-07-05T13:28:44.514Z,2.00
2018-07-05T13:31:29.682Z,2.10
2018-07-05T13:34:14.778Z,2.77
2018-07-05T13:36:59.810Z,2.17
2018-07-05T13:39:45.519Z,2.20
2018-07-05T13:42:24.822Z,2.60
2018-07-05T13:45:09.927Z,2.43
2018-07-05T13:47:55.134Z,2.03
2018-07-05T13:50:40.429Z,2.50
2018-07-05T13:53:25.721Z,1.97
2018-07-05T13:56:10.818Z,2.63
2018-07-05T13:58:55.924Z,2.10
2018-07-05T14:01:41.115Z,2.30
2018-07-05T14:04:26.170Z,2.40
2018-07-05T14:07:11.763Z,2.13
2018-07-05T14:09:57.128Z,1.70
2018-07-05T14:12:42.197Z,2.27
2018-07-05T14:15:28.502Z,2.30
2018-07-05T14:18:13.418Z,2.60
2018-07-05T14:20:58.618Z,2.50
2018-07-05T14:23:43.661Z,1.80
2018-07-05T14:26:28.831Z,2.47
2018-07-05T14:29:13.870Z,1.73
2018-07-05T14:31:59.064Z,1.80
2018-07-05T14:34:44.113Z,2.00
2018-07-05T14:37:29.444Z,1.80
2018-07-05T14:40:14.512Z,1.67
2018-07-05T14:42:59.680Z,1.73
2018-07-05T14:45:45.446Z,1.90
2018-07-05T14:48:30.549Z,2.30
2018-07-05T14:51:15.716Z,1.87
2018-07-05T14:54:00.813Z,1.70
2018-07-05T14:56:46.434Z,1.70
2018-07-05T14:59:31.566Z,2.00
2018-07-05T15:02:16.919Z,1.80
2018-07-05T15:05:01.927Z,1.70
2018-07-05T15:07:47.162Z,1.40
2018-07-05T15:10:39.695Z,1.67
2018-07-05T15:13:25.017Z,1.50
2018-07-05T15:16:10.168Z,1.50
2018-07-05T15:18:55.236Z,1.73
2018-07-05T15:21:40.486Z,1.20
2018-07-05T15:24:25.486Z,1.23
2018-07-05T15:27:10.586Z,1.60
2018-07-05T15:29:56.427Z,1.50
2018-07-05T15:32:41.603Z,1.77
2018-07-05T15:35:26.800Z,1.67
2018-07-05T15:38:11.990Z,1.80
2018-07-05T15:40:56.935Z,1.87
2018-07-05T15:43:41.874Z,1.90
2018-07-05T15:46:27.031Z,2.23
2018-07-05T15:49:12.177Z,2.30
2018-07-05T15:51:57.115Z,2.20
2018-07-05T15:54:41.994Z,2.10
2018-07-05T15:57:27.279Z,2.00
2018-07-05T16:00:12.493Z,2.20
2018-07-05T16:02:57.563Z,2.10
2018-07-05T16:05:42.516Z,2.10
2018-07-05T16:08:27.850Z,1.90
2018-07-05T16:11:13.109Z,2.20
2018-07-05T16:13:58.212Z,1.83
2018-07-05T16:16:43.110Z,1.70
2018-07-05T16:19:28.186Z,1.60
2018-07-05T16:22:13.230Z,1.90
2018-07-05T16:24:58.343Z,2.23
2018-07-05T16:27:43.305Z,1.70
2018-07-05T16:30:28.304Z,2.30
2018-07-05T16:33:13.367Z,2.37
2018-07-05T16:35:58.568Z,1.90
2018-07-05T16:38:43.686Z,1.80
2018-07-05T16:41:28.762Z,1.80
2018-07-05T16:44:13.950Z,2.10
2018-07-05T16:46:59.114Z,2.00
2018-07-05T16:49:44.277Z,2.00
2018-07-05T16:52:29.381Z,1.87
2018-07-05T16:55:14.557Z,1.80
2018-07-05T16:57:59.577Z,2.90
2018-07-05T17:00:44.747Z,2.50
2018-07-05T17:03:29.667Z,2.43
2018-07-05T17:06:14.830Z,2.23
2018-07-05T17:08:59.986Z,2.07
2018-07-05T17:11:44.948Z,1.80
2018-07-05T17:14:30.210Z,1.80
2018-07-05T17:17:15.459Z,2.03
2018-07-05T17:20:00.547Z,1.60
2018-07-05T17:22:45.450Z,1.87
2018-07-05T17:25:30.663Z,1.83
2018-07-05T17:28:15.962Z,1.73
2018-07-05T17:31:00.954Z,1.80
2018-07-05T17:33:45.986Z,1.60
2018-07-05T17:36:31.168Z,1.80
2018-07-05T17:39:16.344Z,1.90
2018-07-05T17:42:01.567Z,1.90
2018-07-05T17:44:46.551Z,2.10
2018-07-05T17:47:31.523Z,1.87
2018-07-05T17:50:16.750Z,1.57
2018-07-05T17:53:01.812Z,1.80
2018-07-05T17:55:46.790Z,1.70
2018-07-05T17:58:31.790Z,2.10
2018-07-05T18:01:16.783Z,2.00
2018-07-05T18:04:01.989Z,2.03
2018-07-05T18:06:47.092Z,1.83
2018-07-05T18:09:31.964Z,2.07
2018-07-05T18:12:17.151Z,1.67
2018-07-05T18:15:02.347Z,1.97
2018-07-05T18:17:47.478Z,2.13
2018-07-05T18:20:32.469Z,2.03
2018-07-05T18:23:17.470Z,2.00
2018-07-05T18:26:02.382Z,2.27
2018-07-05T18:28:47.572Z,2.37
2018-07-05T18:31:32.575Z,1.97
2018-07-05T18:34:17.720Z,2.43
2018-07-05T18:37:02.924Z,2.13
2018-07-05T18:39:48.126Z,2.10
2018-07-05T18:42:33.232Z,2.10
2018-07-05T18:45:18.337Z,2.07
2018-07-05T18:48:03.481Z,2.00
2018-07-05T18:50:48.391Z,1.70
2018-07-05T18:53:33.426Z,2.00
2018-07-05T18:56:18.734Z,2.10
2018-07-05T18:59:03.839Z,2.40
2018-07-05T19:01:48.887Z,1.77
2018-07-05T19:04:33.934Z,2.00
2018-07-05T19:07:19.067Z,2.30
2018-07-05T19:13:02.107Z,2.13
2018-07-05T19:15:47.623Z,1.90
2018-07-05T19:18:32.741Z,2.27
2018-07-05T19:21:17.922Z,2.20
2018-07-05T19:23:57.252Z,2.13
2018-07-05T19:26:42.320Z,2.17
2018-07-05T19:29:27.531Z,2.30
2018-07-05T19:32:12.953Z,1.97
2018-07-05T19:34:58.205Z,1.87
2018-07-05T19:37:44.269Z,2.30
2018-07-05T19:40:30.072Z,2.10
2018-07-05T19:43:15.311Z,2.07
2018-07-05T19:45:54.686Z,1.97
2018-07-05T19:48:39.710Z,2.20
2018-07-05T19:51:24.738Z,2.40
2018-07-05T19:54:09.770Z,1.90
2018-07-05T19:56:55.074Z,1.80
2018-07-05T19:59:40.302Z,1.90
2018-07-05T20:02:25.590Z,2.10
2018-07-05T20:05:10.718Z,2.70
2018-07-05T20:07:55.827Z,2.50
2018-07-05T20:10:42.038Z,2.00
2018-07-05T20:13:27.396Z,1.93
2018-07-05T20:16:12.522Z,2.10
2018-07-05T20:18:58.032Z,2.30
2018-07-05T20:21:43.178Z,3.00
2018-07-05T20:24:28.401Z,2.97
2018-07-05T20:27:13.649Z,2.90
2018-07-05T20:29:58.943Z,2.93
2018-07-05T20:32:43.951Z,3.30
2018-07-05T20:35:29.085Z,3.20
2018-07-05T20:38:14.223Z,2.70
2018-07-05T20:40:59.291Z,2.63
2018-07-05T20:43:44.666Z,2.90
2018-07-05T20:46:29.762Z,2.83
2018-07-05T20:49:09.199Z,2.97
2018-07-05T20:51:54.454Z,2.83
2018-07-05T20:54:39.665Z,2.87
2018-07-05T20:57:24.790Z,3.20
2018-07-05T21:00:09.833Z,2.90
2018-07-05T21:02:54.917Z,3.37
2018-07-05T21:05:40.052Z,2.70
2018-07-05T21:08:25.317Z,2.73
2018-07-05T21:11:10.374Z,2.50
2018-07-05T21:13:49.817Z,3.30
2018-07-05T21:16:34.997Z,3.37
2018-07-05T21:19:20.213Z,2.63
2018-07-05T21:22:05.383Z,2.53
2018-07-05T21:24:44.549Z,3.07
2018-07-05T21:27:30.386Z,2.33
2018-07-05T21:30:15.724Z,2.97
2018-07-05T21:33:00.790Z,2.60
2018-07-05T21:35:45.930Z,2.43
2018-07-05T21:38:31.306Z,2.83
2018-07-05T21:41:16.534Z,2.57
2018-07-05T21:43:55.686Z,2.70
2018-07-05T21:46:40.853Z,2.50
2018-07-05T21:49:26.182Z,2.50
2018-07-05T21:52:11.454Z,2.70
2018-07-05T21:54:56.738Z,2.40
2018-07-05T21:57:41.810Z,2.10
2018-07-05T22:00:27.139Z,1.70
2018-07-05T22:03:12.229Z,1.60
2018-07-05T22:05:57.442Z,1.70
2018-07-05T22:08:42.576Z,1.50
2018-07-05T22:11:27.679Z,1.17
2018-07-05T22:14:12.880Z,1.57
2018-07-05T22:17:03.882Z,1.30
2018-07-05T22:19:54.778Z,1.60
2018-07-05T22:22:45.991Z,1.60
2018-07-05T22:25:37.048Z,1.53
2018-07-05T22:28:28.253Z,1.20
2018-07-05T22:31:19.354Z,1.30
2018-07-05T22:33:58.550Z,1.43
2018-07-05T22:36:43.631Z,1.30
2018-07-05T22:39:28.877Z,1.50
2018-07-05T22:42:14.026Z,1.40
2018-07-05T22:44:53.281Z,1.47
2018-07-05T22:47:38.272Z,1.20
2018-07-05T22:50:23.432Z,1.20
2018-07-05T22:53:08.586Z,1.30
2018-07-05T22:55:53.922Z,1.47
2018-07-05T22:58:33.159Z,1.40
2018-07-05T23:01:18.302Z,1.70
2018-07-05T23:04:03.486Z,2.27
2018-07-05T23:06:48.563Z,2.73
2018-07-05T23:09:33.714Z,2.40
2018-07-05T23:12:18.837Z,2.87
2018-07-05T23:15:03.863Z,2.90
2018-07-05T23:17:48.822Z,2.90
2018-07-05T23:20:33.879Z,2.50
2018-07-05T23:23:19.098Z,2.70
2018-07-05T23:26:04.209Z,2.60
2018-07-05T23:28:49.641Z,2.93
2018-07-05T23:31:34.783Z,3.40
2018-07-05T23:34:19.945Z,2.97
2018-07-05T23:37:04.996Z,2.80
2018-07-05T23:39:50.285Z,2.70
2018-07-05T23:42:29.606Z,2.63
2018-07-05T23:45:14.755Z,2.80
2018-07-05T23:47:59.806Z,2.90
2018-07-05T23:50:44.847Z,3.10
2018-07-05T23:53:30.102Z,2.60
2018-07-05T23:56:15.347Z,3.20
2018-07-05T23:59:00.559Z,3.00
